sensor_id;sensor_type;location;lat;lon;timestamp;pressure;altitude;pressure_sealevel;temperature;humidity
76311;BME280;65120;59.304;18.294;2023-08-21T00:01:11;101794.63;;;18.41;78.30
76311;BME280;65120;59.304;18.294;2023-08-21T00:03:38;101796.50;;;18.39;78.10
76311;BME280;65120;59.304;18.294;2023-08-21T00:06:05;101796.50;;;18.39;77.85
76311;BME280;65120;59.304;18.294;2023-08-21T00:08:31;101798.22;;;18.40;78.28
76311;BME280;65120;59.304;18.294;2023-08-21T00:10:58;101795.69;;;18.37;78.18
76311;BME280;65120;59.304;18.294;2023-08-21T00:13:25;101796.50;;;18.39;78.21
76311;BME280;65120;59.304;18.294;2023-08-21T00:15:52;101798.25;;;18.38;78.29
76311;BME280;65120;59.304;18.294;2023-08-21T00:18:22;101799.16;;;18.39;78.08
76311;BME280;65120;59.304;18.294;2023-08-21T00:20:49;101791.31;;;18.36;78.00
76311;BME280;65120;59.304;18.294;2023-08-21T00:23:15;101788.59;;;18.37;78.14
76311;BME280;65120;59.304;18.294;2023-08-21T00:25:46;101789.53;;;18.36;78.23
76311;BME280;65120;59.304;18.294;2023-08-21T00:28:14;101793.03;;;18.37;78.19
76311;BME280;65120;59.304;18.294;2023-08-21T00:30:41;101779.19;;;18.29;78.10
76311;BME280;65120;59.304;18.294;2023-08-21T00:33:08;101794.84;;;18.35;78.06
76311;BME280;65120;59.304;18.294;2023-08-21T00:35:37;101789.56;;;18.35;77.89
76311;BME280;65120;59.304;18.294;2023-08-21T00:38:04;101788.72;;;18.34;77.96
76311;BME280;65120;59.304;18.294;2023-08-21T00:40:31;101788.72;;;18.34;78.03
76311;BME280;65120;59.304;18.294;2023-08-21T00:42:58;101790.59;;;18.31;78.08
76311;BME280;65120;59.304;18.294;2023-08-21T00:45:25;101791.44;;;18.33;78.12
76311;BME280;65120;59.304;18.294;2023-08-21T00:47:52;101787.97;;;18.31;77.96
76311;BME280;65120;59.304;18.294;2023-08-21T00:50:19;101787.09;;;18.30;77.82
76311;BME280;65120;59.304;18.294;2023-08-21T00:52:48;101765.38;;;18.20;77.86
76311;BME280;65120;59.304;18.294;2023-08-21T00:55:16;101782.72;;;18.29;77.91
76311;BME280;65120;59.304;18.294;2023-08-21T00:57:44;101784.50;;;18.29;77.92
76311;BME280;65120;59.304;18.294;2023-08-21T01:00:12;101781.03;;;18.27;77.87
76311;BME280;65120;59.304;18.294;2023-08-21T01:02:40;101754.25;;;18.11;77.77
76311;BME280;65120;59.304;18.294;2023-08-21T01:05:08;101781.03;;;18.27;77.91
76311;BME280;65120;59.304;18.294;2023-08-21T01:07:40;101773.22;;;18.24;78.02
76311;BME280;65120;59.304;18.294;2023-08-21T01:10:17;101771.50;;;18.23;78.04
76311;BME280;65120;59.304;18.294;2023-08-21T01:12:52;101768.72;;;18.26;78.10
76311;BME280;65120;59.304;18.294;2023-08-21T01:15:24;101772.31;;;18.25;78.24
76311;BME280;65120;59.304;18.294;2023-08-21T01:17:51;101772.31;;;18.25;78.17
76311;BME280;65120;59.304;18.294;2023-08-21T01:20:20;101762.63;;;18.24;78.03
76311;BME280;65120;59.304;18.294;2023-08-21T01:22:47;101756.63;;;18.18;78.14
76311;BME280;65120;59.304;18.294;2023-08-21T01:25:17;101759.97;;;18.24;78.20
76311;BME280;65120;59.304;18.294;2023-08-21T01:27:47;101754.81;;;18.20;78.22
76311;BME280;65120;59.304;18.294;2023-08-21T01:30:15;101752.97;;;18.23;78.18
76311;BME280;65120;59.304;18.294;2023-08-21T01:32:55;101747.69;;;18.23;78.26
76311;BME280;65120;59.304;18.294;2023-08-21T01:35:26;101743.31;;;18.22;78.29
76311;BME280;65120;59.304;18.294;2023-08-21T01:37:54;101730.25;;;18.17;78.14
76311;BME280;65120;59.304;18.294;2023-08-21T01:40:23;101732.75;;;18.22;78.25
76311;BME280;65120;59.304;18.294;2023-08-21T01:42:52;101723.06;;;18.20;78.38
76311;BME280;65120;59.304;18.294;2023-08-21T01:45:19;101726.56;;;18.21;78.29
76311;BME280;65120;59.304;18.294;2023-08-21T01:47:46;101710.88;;;18.16;78.53
76311;BME280;65120;59.304;18.294;2023-08-21T01:50:13;101717.78;;;18.20;78.53
76311;BME280;65120;59.304;18.294;2023-08-21T01:52:40;101716.88;;;18.22;78.32
76311;BME280;65120;59.304;18.294;2023-08-21T01:55:07;101707.38;;;18.16;78.43
76311;BME280;65120;59.304;18.294;2023-08-21T01:57:37;101716.06;;;18.19;78.25
76311;BME280;65120;59.304;18.294;2023-08-21T02:00:05;101716.06;;;18.19;78.36
76311;BME280;65120;59.304;18.294;2023-08-21T02:02:33;101721.34;;;18.19;78.17
76311;BME280;65120;59.304;18.294;2023-08-21T02:05:00;101716.09;;;18.18;78.27
76311;BME280;65120;59.304;18.294;2023-08-21T02:07:28;101712.59;;;18.17;78.15
76311;BME280;65120;59.304;18.294;2023-08-21T02:09:55;101711.00;;;18.13;78.20
76311;BME280;65120;59.304;18.294;2023-08-21T02:12:22;101717.97;;;18.16;78.18
76311;BME280;65120;59.304;18.294;2023-08-21T02:14:50;101718.00;;;18.14;78.29
76311;BME280;65120;59.304;18.294;2023-08-21T02:17:17;101723.28;;;18.14;78.15
76311;BME280;65120;59.304;18.294;2023-08-21T02:19:44;101725.00;;;18.15;78.24
76311;BME280;65120;59.304;18.294;2023-08-21T02:22:11;101711.28;;;18.04;78.61
76311;BME280;65120;59.304;18.294;2023-08-21T02:24:38;101721.56;;;18.13;78.36
76311;BME280;65120;59.304;18.294;2023-08-21T02:27:05;101720.69;;;18.13;78.12
76311;BME280;65120;59.304;18.294;2023-08-21T02:29:32;101718.94;;;18.13;78.30
76311;BME280;65120;59.304;18.294;2023-08-21T02:32:00;101710.09;;;18.13;78.46
76311;BME280;65120;59.304;18.294;2023-08-21T02:34:27;101710.16;;;18.11;78.28
76311;BME280;65120;59.304;18.294;2023-08-21T02:36:54;101716.31;;;18.12;78.35
76311;BME280;65120;59.304;18.294;2023-08-21T02:39:21;101712.84;;;18.10;78.51
76311;BME280;65120;59.304;18.294;2023-08-21T02:41:48;101712.81;;;18.11;78.52
76311;BME280;65120;59.304;18.294;2023-08-21T02:44:14;101707.53;;;18.11;78.54
76311;BME280;65120;59.304;18.294;2023-08-21T02:46:41;101713.69;;;18.12;78.67
76311;BME280;65120;59.304;18.294;2023-08-21T02:49:10;101706.66;;;18.11;78.58
76311;BME280;65120;59.304;18.294;2023-08-21T02:51:36;101700.53;;;18.10;78.71
76311;BME280;65120;59.304;18.294;2023-08-21T02:54:03;101699.59;;;18.11;78.60
76311;BME280;65120;59.304;18.294;2023-08-21T02:56:30;101689.94;;;18.10;78.80
76311;BME280;65120;59.304;18.294;2023-08-21T02:58:57;101686.38;;;18.11;78.66
76311;BME280;65120;59.304;18.294;2023-08-21T03:01:24;101679.38;;;18.10;78.47
76311;BME280;65120;59.304;18.294;2023-08-21T03:03:51;101667.06;;;18.09;78.52
76311;BME280;65120;59.304;18.294;2023-08-21T03:06:19;101672.34;;;18.09;78.49
76311;BME280;65120;59.304;18.294;2023-08-21T03:08:46;101674.97;;;18.09;78.38
76311;BME280;65120;59.304;18.294;2023-08-21T03:11:13;101675.84;;;18.10;78.32
76311;BME280;65120;59.304;18.294;2023-08-21T03:13:40;101684.69;;;18.09;78.12
76311;BME280;65120;59.304;18.294;2023-08-21T03:16:07;101676.84;;;18.07;77.95
76311;BME280;65120;59.304;18.294;2023-08-21T03:18:53;101674.19;;;18.07;77.87
76311;BME280;65120;59.304;18.294;2023-08-21T03:21:22;101675.09;;;18.06;77.55
76311;BME280;65120;59.304;18.294;2023-08-21T03:23:51;101673.41;;;18.04;77.67
76311;BME280;65120;59.304;18.294;2023-08-21T03:26:18;101672.63;;;18.02;77.22
76311;BME280;65120;59.304;18.294;2023-08-21T03:28:45;101667.34;;;18.02;77.34
76311;BME280;65120;59.304;18.294;2023-08-21T03:31:12;101657.06;;;17.92;77.32
76311;BME280;65120;59.304;18.294;2023-08-21T03:33:39;101668.31;;;17.99;77.60
76311;BME280;65120;59.304;18.294;2023-08-21T03:36:06;101669.22;;;17.98;77.67
76311;BME280;65120;59.304;18.294;2023-08-21T03:38:34;101670.13;;;17.97;77.52
76311;BME280;65120;59.304;18.294;2023-08-21T03:41:02;101669.31;;;17.95;77.37
76311;BME280;65120;59.304;18.294;2023-08-21T03:43:30;101672.88;;;17.94;77.68
76311;BME280;65120;59.304;18.294;2023-08-21T03:45:57;101665.00;;;17.92;77.71
76311;BME280;65120;59.304;18.294;2023-08-21T03:48:24;101655.59;;;17.84;77.76
76311;BME280;65120;59.304;18.294;2023-08-21T03:50:51;101673.00;;;17.91;77.88
76311;BME280;65120;59.304;18.294;2023-08-21T03:53:18;101660.03;;;17.83;78.18
76311;BME280;65120;59.304;18.294;2023-08-21T03:55:46;101665.97;;;17.90;78.10
76311;BME280;65120;59.304;18.294;2023-08-21T03:58:13;101668.59;;;17.90;78.15
76311;BME280;65120;59.304;18.294;2023-08-21T04:00:40;101666.91;;;17.89;78.15
76311;BME280;65120;59.304;18.294;2023-08-21T04:03:07;101664.25;;;17.89;78.17
76311;BME280;65120;59.304;18.294;2023-08-21T04:05:34;101654.81;;;17.82;78.43
76311;BME280;65120;59.304;18.294;2023-08-21T04:08:01;101670.47;;;17.88;78.25
76311;BME280;65120;59.304;18.294;2023-08-21T04:10:28;101660.09;;;17.82;78.49
76311;BME280;65120;59.304;18.294;2023-08-21T04:12:56;101669.53;;;17.89;78.57
76311;BME280;65120;59.304;18.294;2023-08-21T04:15:23;101678.31;;;17.89;78.56
76311;BME280;65120;59.304;18.294;2023-08-21T04:17:50;101671.25;;;17.90;78.57
76311;BME280;65120;59.304;18.294;2023-08-21T04:20:18;101666.06;;;17.87;78.67
76311;BME280;65120;59.304;18.294;2023-08-21T04:22:44;101676.53;;;17.90;78.76
76311;BME280;65120;59.304;18.294;2023-08-21T04:25:11;101681.81;;;17.90;78.76
76311;BME280;65120;59.304;18.294;2023-08-21T04:27:38;101681.81;;;17.90;78.89
76311;BME280;65120;59.304;18.294;2023-08-21T04:30:08;101679.19;;;17.90;78.78
76311;BME280;65120;59.304;18.294;2023-08-21T04:32:35;101680.09;;;17.89;78.78
76311;BME280;65120;59.304;18.294;2023-08-21T04:35:02;101680.94;;;17.91;78.93
76311;BME280;65120;59.304;18.294;2023-08-21T04:37:30;101667.94;;;17.85;78.98
76311;BME280;65120;59.304;18.294;2023-08-21T04:39:57;101676.53;;;17.90;79.14
76311;BME280;65120;59.304;18.294;2023-08-21T04:42:24;101680.00;;;17.92;79.03
76311;BME280;65120;59.304;18.294;2023-08-21T04:44:51;101686.16;;;17.92;79.12
76311;BME280;65120;59.304;18.294;2023-08-21T04:47:24;101679.06;;;17.93;79.24
76311;BME280;65120;59.304;18.294;2023-08-21T04:49:52;101672.16;;;17.90;79.33
76311;BME280;65120;59.304;18.294;2023-08-21T04:52:19;101669.50;;;17.90;79.26
76311;BME280;65120;59.304;18.294;2023-08-21T04:54:47;101671.97;;;17.95;79.36
76311;BME280;65120;59.304;18.294;2023-08-21T04:57:14;101679.88;;;17.95;79.36
76311;BME280;65120;59.304;18.294;2023-08-21T04:59:42;101671.91;;;17.96;79.34
76311;BME280;65120;59.304;18.294;2023-08-21T05:02:09;101674.59;;;17.95;79.52
76311;BME280;65120;59.304;18.294;2023-08-21T05:04:37;101673.63;;;17.97;79.33
76311;BME280;65120;59.304;18.294;2023-08-21T05:07:04;101664.75;;;18.00;79.48
76311;BME280;65120;59.304;18.294;2023-08-21T05:09:31;101673.53;;;18.01;79.55
76311;BME280;65120;59.304;18.294;2023-08-21T05:11:58;101665.66;;;17.99;79.69
76311;BME280;65120;59.304;18.294;2023-08-21T05:14:25;101670.88;;;18.01;79.51
76311;BME280;65120;59.304;18.294;2023-08-21T05:16:52;101640.53;;;17.87;79.53
76311;BME280;65120;59.304;18.294;2023-08-21T05:19:19;101662.09;;;18.00;79.59
76311;BME280;65120;59.304;18.294;2023-08-21T05:21:47;101666.34;;;18.04;79.58
76311;BME280;65120;59.304;18.294;2023-08-21T05:24:14;101665.44;;;18.05;79.62
76311;BME280;65120;59.304;18.294;2023-08-21T05:26:41;101671.56;;;18.07;79.60
76311;BME280;65120;59.304;18.294;2023-08-21T05:29:08;101660.03;;;18.08;79.75
76311;BME280;65120;59.304;18.294;2023-08-21T05:31:35;101662.81;;;18.05;79.74
76311;BME280;65120;59.304;18.294;2023-08-21T05:34:02;101650.69;;;17.98;79.74
76311;BME280;65120;59.304;18.294;2023-08-21T05:36:29;101659.94;;;18.11;79.79
76311;BME280;65120;59.304;18.294;2023-08-21T05:38:57;101667.78;;;18.13;79.85
76311;BME280;65120;59.304;18.294;2023-08-21T05:41:24;101654.66;;;18.11;79.80
76311;BME280;65120;59.304;18.294;2023-08-21T05:43:51;101663.28;;;18.16;79.81
76311;BME280;65120;59.304;18.294;2023-08-21T05:46:18;101652.72;;;18.16;79.75
76311;BME280;65120;59.304;18.294;2023-08-21T05:48:45;101663.16;;;18.19;79.69
76311;BME280;65120;59.304;18.294;2023-08-21T05:51:12;101662.25;;;18.20;79.67
76311;BME280;65120;59.304;18.294;2023-08-21T05:53:39;101658.78;;;18.18;79.94
76311;BME280;65120;59.304;18.294;2023-08-21T05:56:07;101664.84;;;18.22;79.85
76311;BME280;65120;59.304;18.294;2023-08-21T05:58:34;101660.34;;;18.24;79.60
76311;BME280;65120;59.304;18.294;2023-08-21T06:01:01;101658.59;;;18.25;79.50
76311;BME280;65120;59.304;18.294;2023-08-21T06:03:27;101657.66;;;18.26;79.56
76311;BME280;65120;59.304;18.294;2023-08-21T06:05:54;101649.13;;;18.17;79.57
76311;BME280;65120;59.304;18.294;2023-08-21T06:08:21;101656.69;;;18.28;79.59
76311;BME280;65120;59.304;18.294;2023-08-21T06:10:51;101651.50;;;18.25;79.62
76311;BME280;65120;59.304;18.294;2023-08-21T06:13:19;101629.81;;;18.15;79.85
76311;BME280;65120;59.304;18.294;2023-08-21T06:15:46;101653.00;;;18.32;79.95
76311;BME280;65120;59.304;18.294;2023-08-21T06:18:13;101630.47;;;18.22;79.77
76311;BME280;65120;59.304;18.294;2023-08-21T06:20:42;101652.03;;;18.35;79.89
76311;BME280;65120;59.304;18.294;2023-08-21T06:23:09;101651.97;;;18.36;79.88
76311;BME280;65120;59.304;18.294;2023-08-21T06:25:36;101657.19;;;18.38;80.07
76311;BME280;65120;59.304;18.294;2023-08-21T06:28:04;101652.72;;;18.40;80.07
76311;BME280;65120;59.304;18.294;2023-08-21T06:30:32;101656.19;;;18.42;80.01
76311;BME280;65120;59.304;18.294;2023-08-21T06:32:59;101654.28;;;18.46;79.94
76311;BME280;65120;59.304;18.294;2023-08-21T06:35:26;101646.28;;;18.47;80.06
76311;BME280;65120;59.304;18.294;2023-08-21T06:37:53;101647.03;;;18.51;79.79
76311;BME280;65120;59.304;18.294;2023-08-21T06:40:21;101635.47;;;18.53;79.87
76311;BME280;65120;59.304;18.294;2023-08-21T06:42:47;101637.06;;;18.57;79.86
76311;BME280;65120;59.304;18.294;2023-08-21T06:45:16;101635.22;;;18.59;79.87
76311;BME280;65120;59.304;18.294;2023-08-21T06:47:44;101636.81;;;18.63;79.65
76311;BME280;65120;59.304;18.294;2023-08-21T06:50:12;101633.22;;;18.66;79.43
76311;BME280;65120;59.304;18.294;2023-08-21T06:52:39;101627.75;;;18.71;79.46
76311;BME280;65120;59.304;18.294;2023-08-21T06:55:07;101626.72;;;18.75;79.32
76311;BME280;65120;59.304;18.294;2023-08-21T06:57:34;101629.25;;;18.78;79.25
76311;BME280;65120;59.304;18.294;2023-08-21T07:00:02;101622.13;;;18.80;79.26
76311;BME280;65120;59.304;18.294;2023-08-21T07:02:29;101628.03;;;18.86;79.43
76311;BME280;65120;59.304;18.294;2023-08-21T07:04:58;101627.91;;;18.90;79.28
76311;BME280;65120;59.304;18.294;2023-08-21T07:07:25;101625.16;;;18.93;78.92
76311;BME280;65120;59.304;18.294;2023-08-21T07:09:51;101608.50;;;18.89;78.94
76311;BME280;65120;59.304;18.294;2023-08-21T07:12:18;101613.69;;;18.92;78.60
76311;BME280;65120;59.304;18.294;2023-08-21T07:14:45;101623.81;;;19.04;78.43
76311;BME280;65120;59.304;18.294;2023-08-21T07:17:12;101615.97;;;19.01;77.73
76311;BME280;65120;59.304;18.294;2023-08-21T07:19:39;101630.56;;;19.12;77.62
76311;BME280;65120;59.304;18.294;2023-08-21T07:22:07;101622.50;;;19.15;77.68
76311;BME280;65120;59.304;18.294;2023-08-21T07:24:34;101620.66;;;19.17;77.47
76311;BME280;65120;59.304;18.294;2023-08-21T07:27:01;101597.31;;;19.04;77.42
76311;BME280;65120;59.304;18.294;2023-08-21T07:29:29;101605.56;;;19.19;76.95
76311;BME280;65120;59.304;18.294;2023-08-21T07:31:56;101620.25;;;19.26;76.67
76311;BME280;65120;59.304;18.294;2023-08-21T07:34:23;101613.13;;;19.28;76.40
76311;BME280;65120;59.304;18.294;2023-08-21T07:36:50;101618.28;;;19.31;76.54
76311;BME280;65120;59.304;18.294;2023-08-21T07:39:18;101606.75;;;19.32;76.38
76311;BME280;65120;59.304;18.294;2023-08-21T07:41:45;101610.94;;;19.38;76.26
76311;BME280;65120;59.304;18.294;2023-08-21T07:44:12;101610.75;;;19.42;76.02
76311;BME280;65120;59.304;18.294;2023-08-21T07:46:39;101611.47;;;19.46;75.84
76311;BME280;65120;59.304;18.294;2023-08-21T07:49:06;101611.28;;;19.50;75.83
76311;BME280;65120;59.304;18.294;2023-08-21T07:51:33;101616.34;;;19.57;76.30
76311;BME280;65120;59.304;18.294;2023-08-21T07:54:00;101615.22;;;19.62;76.22
76311;BME280;65120;59.304;18.294;2023-08-21T07:56:28;101610.53;;;19.69;75.69
76311;BME280;65120;59.304;18.294;2023-08-21T07:58:55;101579.94;;;19.60;75.26
76311;BME280;65120;59.304;18.294;2023-08-21T08:01:22;101600.19;;;19.83;74.93
76311;BME280;65120;59.304;18.294;2023-08-21T08:03:49;101603.50;;;19.88;74.47
76311;BME280;65120;59.304;18.294;2023-08-21T08:06:16;101605.88;;;19.94;74.40
76311;BME280;65120;59.304;18.294;2023-08-21T08:08:43;101599.38;;;20.02;74.32
76311;BME280;65120;59.304;18.294;2023-08-21T08:11:11;101603.53;;;20.07;74.09
76311;BME280;65120;59.304;18.294;2023-08-21T08:13:39;101598.81;;;20.14;73.70
76311;BME280;65120;59.304;18.294;2023-08-21T08:16:06;101595.13;;;20.18;73.70
76311;BME280;65120;59.304;18.294;2023-08-21T08:18:33;101595.75;;;20.23;73.72
76311;BME280;65120;59.304;18.294;2023-08-21T08:21:00;101601.41;;;20.34;73.44
76311;BME280;65120;59.304;18.294;2023-08-21T08:23:27;101602.72;;;20.44;73.71
76311;BME280;65120;59.304;18.294;2023-08-21T08:25:54;101602.44;;;20.51;73.15
76311;BME280;65120;59.304;18.294;2023-08-21T08:28:21;101606.41;;;20.61;72.87
76311;BME280;65120;59.304;18.294;2023-08-21T08:30:50;101589.53;;;20.62;72.14
76311;BME280;65120;59.304;18.294;2023-08-21T08:33:17;101601.38;;;20.74;71.95
76311;BME280;65120;59.304;18.294;2023-08-21T08:35:44;101580.22;;;20.72;72.03
76311;BME280;65120;59.304;18.294;2023-08-21T08:38:11;101584.28;;;20.79;71.89
76311;BME280;65120;59.304;18.294;2023-08-21T08:40:43;101583.97;;;20.85;71.73
76311;BME280;65120;59.304;18.294;2023-08-21T08:43:10;101596.69;;;20.98;71.13
76311;BME280;65120;59.304;18.294;2023-08-21T08:45:37;101605.25;;;21.03;71.02
76311;BME280;65120;59.304;18.294;2023-08-21T08:48:07;101595.28;;;21.08;70.34
76311;BME280;65120;59.304;18.294;2023-08-21T08:50:34;101590.91;;;21.07;70.49
76311;BME280;65120;59.304;18.294;2023-08-21T08:53:01;101601.94;;;21.17;70.24
76311;BME280;65120;59.304;18.294;2023-08-21T08:55:28;101593.75;;;21.21;69.61
76311;BME280;65120;59.304;18.294;2023-08-21T08:57:56;101599.69;;;21.26;69.92
76311;BME280;65120;59.304;18.294;2023-08-21T09:00:23;101562.47;;;21.09;69.75
76311;BME280;65120;59.304;18.294;2023-08-21T09:02:50;101594.06;;;21.32;69.38
76311;BME280;65120;59.304;18.294;2023-08-21T09:05:20;101593.91;;;21.36;69.25
76311;BME280;65120;59.304;18.294;2023-08-21T09:08:02;101597.22;;;21.41;69.53
76311;BME280;65120;59.304;18.294;2023-08-21T09:10:29;101602.38;;;21.44;69.37
76311;BME280;65120;59.304;18.294;2023-08-21T09:12:56;101589.78;;;21.47;68.48
76311;BME280;65120;59.304;18.294;2023-08-21T09:15:28;101592.28;;;21.50;67.77
76311;BME280;65120;59.304;18.294;2023-08-21T09:17:55;101582.75;;;21.46;67.84
76311;BME280;65120;59.304;18.294;2023-08-21T09:20:24;101587.50;;;21.57;67.63
76311;BME280;65120;59.304;18.294;2023-08-21T09:22:54;101584.63;;;21.62;67.64
76311;BME280;65120;59.304;18.294;2023-08-21T09:25:22;101586.16;;;21.66;66.85
76311;BME280;65120;59.304;18.294;2023-08-21T09:27:52;101578.19;;;21.66;66.03
76311;BME280;65120;59.304;18.294;2023-08-21T09:30:19;101575.53;;;21.66;66.51
76311;BME280;65120;59.304;18.294;2023-08-21T09:32:54;101564.53;;;21.56;65.80
76311;BME280;65120;59.304;18.294;2023-08-21T09:35:21;101587.53;;;21.74;66.16
76311;BME280;65120;59.304;18.294;2023-08-21T09:37:50;101591.78;;;21.77;65.87
76311;BME280;65120;59.304;18.294;2023-08-21T09:40:18;101581.88;;;21.81;65.70
76311;BME280;65120;59.304;18.294;2023-08-21T09:42:45;101590.59;;;21.83;65.34
76311;BME280;65120;59.304;18.294;2023-08-21T09:45:20;101579.81;;;21.86;65.35
76311;BME280;65120;59.304;18.294;2023-08-21T09:47:47;101576.22;;;21.87;65.22
76311;BME280;65120;59.304;18.294;2023-08-21T09:50:15;101581.28;;;21.91;65.33
76311;BME280;65120;59.304;18.294;2023-08-21T09:52:42;101586.47;;;21.94;65.21
76311;BME280;65120;59.304;18.294;2023-08-21T09:55:12;101581.81;;;21.98;64.07
76311;BME280;65120;59.304;18.294;2023-08-21T09:57:40;101579.00;;;22.01;64.96
76311;BME280;65120;59.304;18.294;2023-08-21T10:00:08;101584.16;;;22.04;64.71
76311;BME280;65120;59.304;18.294;2023-08-21T10:02:42;101587.66;;;22.05;64.60
76311;BME280;65120;59.304;18.294;2023-08-21T10:05:15;101574.88;;;21.95;64.42
76311;BME280;65120;59.304;18.294;2023-08-21T10:07:43;101580.53;;;22.05;64.51
76311;BME280;65120;59.304;18.294;2023-08-21T10:10:12;101573.50;;;22.04;64.81
76311;BME280;65120;59.304;18.294;2023-08-21T10:12:39;101577.13;;;22.03;64.27
76311;BME280;65120;59.304;18.294;2023-08-21T10:15:07;101586.03;;;22.02;64.31
76311;BME280;65120;59.304;18.294;2023-08-21T10:17:35;101572.72;;;22.02;64.54
76311;BME280;65120;59.304;18.294;2023-08-21T10:20:03;101574.47;;;22.03;64.25
76311;BME280;65120;59.304;18.294;2023-08-21T10:22:42;101561.16;;;22.03;63.94
76311;BME280;65120;59.304;18.294;2023-08-21T10:25:17;101553.09;;;22.05;64.33
76311;BME280;65120;59.304;18.294;2023-08-21T10:27:46;101557.63;;;22.02;63.69
76311;BME280;65120;59.304;18.294;2023-08-21T10:30:14;101565.44;;;22.06;63.90
76311;BME280;65120;59.304;18.294;2023-08-21T10:32:46;101553.00;;;22.06;63.50
76311;BME280;65120;59.304;18.294;2023-08-21T10:35:19;101557.38;;;22.07;63.39
76311;BME280;65120;59.304;18.294;2023-08-21T10:38:10;101552.91;;;22.08;63.76
76311;BME280;65120;59.304;18.294;2023-08-21T10:40:40;101553.94;;;22.05;64.13
76311;BME280;65120;59.304;18.294;2023-08-21T10:43:37;101556.53;;;22.07;64.26
76311;BME280;65120;59.304;18.294;2023-08-21T10:46:04;101550.34;;;22.06;63.82
76311;BME280;65120;59.304;18.294;2023-08-21T10:48:31;101558.25;;;22.08;63.99
76311;BME280;65120;59.304;18.294;2023-08-21T10:50:58;101558.16;;;22.09;63.62
76311;BME280;65120;59.304;18.294;2023-08-21T10:53:28;101560.81;;;22.09;63.45
76311;BME280;65120;59.304;18.294;2023-08-21T10:55:56;101555.34;;;22.12;64.22
76311;BME280;65120;59.304;18.294;2023-08-21T10:58:23;101556.13;;;22.14;64.04
76311;BME280;65120;59.304;18.294;2023-08-21T11:00:56;101563.16;;;22.15;63.38
76311;BME280;65120;59.304;18.294;2023-08-21T11:03:23;101555.25;;;22.14;63.68
76311;BME280;65120;59.304;18.294;2023-08-21T11:06:00;101558.66;;;22.17;63.44
76311;BME280;65120;59.304;18.294;2023-08-21T11:08:28;101556.88;;;22.16;63.22
76311;BME280;65120;59.304;18.294;2023-08-21T11:10:56;101560.66;;;22.12;63.47
76311;BME280;65120;59.304;18.294;2023-08-21T11:13:24;101550.81;;;22.14;63.19
76311;BME280;65120;59.304;18.294;2023-08-21T11:15:57;101554.31;;;22.15;63.39
76311;BME280;65120;59.304;18.294;2023-08-21T11:18:30;101556.03;;;22.16;62.85
76311;BME280;65120;59.304;18.294;2023-08-21T11:21:03;101555.16;;;22.15;63.07
76311;BME280;65120;59.304;18.294;2023-08-21T11:23:32;101555.16;;;22.15;62.07
76311;BME280;65120;59.304;18.294;2023-08-21T11:26:01;101551.56;;;22.16;62.30
76311;BME280;65120;59.304;18.294;2023-08-21T11:28:30;101549.00;;;22.15;62.42
76311;BME280;65120;59.304;18.294;2023-08-21T11:30:58;101550.00;;;22.12;62.26
76311;BME280;65120;59.304;18.294;2023-08-21T11:33:26;101540.22;;;22.13;62.21
76311;BME280;65120;59.304;18.294;2023-08-21T11:35:53;101530.78;;;22.07;62.05
76311;BME280;65120;59.304;18.294;2023-08-21T11:38:24;101538.59;;;22.10;61.59
76311;BME280;65120;59.304;18.294;2023-08-21T11:40:53;101523.03;;;22.02;61.82
76311;BME280;65120;59.304;18.294;2023-08-21T11:43:22;101535.25;;;22.07;61.26
76311;BME280;65120;59.304;18.294;2023-08-21T11:45:49;101536.09;;;22.07;61.93
76311;BME280;65120;59.304;18.294;2023-08-21T11:48:19;101538.75;;;22.07;62.09
76311;BME280;65120;59.304;18.294;2023-08-21T11:50:48;101530.78;;;22.07;61.58
76311;BME280;65120;59.304;18.294;2023-08-21T11:53:30;101533.44;;;22.07;61.69
76311;BME280;65120;59.304;18.294;2023-08-21T11:55:57;101519.06;;;21.94;61.64
76311;BME280;65120;59.304;18.294;2023-08-21T11:58:27;101532.47;;;22.08;61.90
76311;BME280;65120;59.304;18.294;2023-08-21T12:00:54;101526.41;;;22.06;62.17
76311;BME280;65120;59.304;18.294;2023-08-21T12:03:21;101530.72;;;22.09;62.35
76311;BME280;65120;59.304;18.294;2023-08-21T12:05:48;101527.16;;;22.08;62.39
76311;BME280;65120;59.304;18.294;2023-08-21T12:08:15;101514.13;;;22.04;61.24
76311;BME280;65120;59.304;18.294;2023-08-21T12:10:42;101510.78;;;22.00;61.36
76311;BME280;65120;59.304;18.294;2023-08-21T12:13:09;101528.72;;;22.12;61.43
76311;BME280;65120;59.304;18.294;2023-08-21T12:15:37;101523.41;;;22.12;61.69
76311;BME280;65120;59.304;18.294;2023-08-21T12:18:04;101521.53;;;22.14;61.54
76311;BME280;65120;59.304;18.294;2023-08-21T12:20:31;101522.44;;;22.13;61.54
76311;BME280;65120;59.304;18.294;2023-08-21T12:22:59;101519.78;;;22.13;61.47
76311;BME280;65120;59.304;18.294;2023-08-21T12:25:26;101525.97;;;22.14;61.35
76311;BME280;65120;59.304;18.294;2023-08-21T12:27:53;101514.47;;;22.13;61.36
76311;BME280;65120;59.304;18.294;2023-08-21T12:30:20;101518.09;;;22.12;61.56
76311;BME280;65120;59.304;18.294;2023-08-21T12:32:48;101503.94;;;22.12;61.28
76311;BME280;65120;59.304;18.294;2023-08-21T12:35:15;101514.75;;;22.09;61.28
76311;BME280;65120;59.304;18.294;2023-08-21T12:37:42;101507.63;;;22.09;61.44
76311;BME280;65120;59.304;18.294;2023-08-21T12:40:09;101496.53;;;22.01;61.26
76311;BME280;65120;59.304;18.294;2023-08-21T12:42:36;101513.84;;;22.08;61.15
76311;BME280;65120;59.304;18.294;2023-08-21T12:45:04;101509.41;;;22.09;61.68